Time;durP1;ratioP1;P1;durP2;ratioP2;P2;SDS_P1;SDS_P2;PMS_P1;PMS_P2;Temp;Humidity;BMP_temperature;BMP_pressure;BME280_temperature;BME280_humidity;BME280_pressure;Samples;Min_cycle;Max_cycle;Signal;HPM_P1;HPM_P2
2022/05/26 05:00:30;;;;;;;1.60;1.10;;;14.50;97.20;;;;;;1722561;28;20181;-71
2022/05/26 05:01:21;;;;;;;1.35;0.90;;;14.50;97.20;;;;;;1722261;28;20208;-71
2022/05/26 05:02:13;;;;;;;1.10;0.80;;;14.60;97.20;;;;;;1722679;28;20189;-71
2022/05/26 05:03:04;;;;;;;1.60;1.00;;;14.60;97.20;;;;;;1721062;28;20494;-71
2022/05/26 05:03:56;;;;;;;1.58;0.93;;;14.60;97.20;;;;;;1721290;28;20276;-71
2022/05/26 05:04:48;;;;;;;1.65;0.90;;;14.60;97.20;;;;;;1722914;28;20196;-71
2022/05/26 05:05:40;;;;;;;5.03;1.20;;;14.60;97.20;;;;;;1723207;28;20193;-71
2022/05/26 05:06:31;;;;;;;1.15;0.90;;;14.60;97.20;;;;;;1721086;28;20194;-71
2022/05/26 05:07:22;;;;;;;1.30;1.07;;;14.60;97.20;;;;;;1722874;28;20198;-71
2022/05/26 05:08:13;;;;;;;1.08;0.73;;;14.60;97.20;;;;;;1723222;28;20443;-71
2022/05/26 05:09:05;;;;;;;2.33;1.00;;;14.70;97.20;;;;;;1721334;28;20193;-71
2022/05/26 05:09:56;;;;;;;2.00;1.10;;;14.70;97.20;;;;;;1722007;28;20479;-71
2022/05/26 05:10:48;;;;;;;2.40;0.90;;;14.70;97.20;;;;;;1722015;28;21541;-71
2022/05/26 05:11:39;;;;;;;2.17;0.90;;;14.70;97.20;;;;;;1722196;28;20749;-71
2022/05/26 05:12:31;;;;;;;1.73;0.93;;;14.80;97.20;;;;;;1723439;28;20906;-71
2022/05/26 05:13:21;;;;;;;1.08;0.98;;;14.80;97.20;;;;;;1722253;28;20235;-71
2022/05/26 05:14:13;;;;;;;2.40;0.90;;;14.90;97.20;;;;;;1722036;28;20196;-71
2022/05/26 05:15:10;;;;;;;2.08;1.20;;;14.90;97.20;;;;;;1720794;28;20447;-71
2022/05/26 05:16:06;;;;;;;1.90;1.08;;;14.90;97.20;;;;;;1722428;28;20205;-71
2022/05/26 05:16:57;;;;;;;1.45;1.00;;;15.00;97.20;;;;;;1721150;28;20231;-71
2022/05/26 05:17:49;;;;;;;1.30;1.10;;;15.00;97.20;;;;;;1722368;28;20215;-71
2022/05/26 05:18:40;;;;;;;1.33;0.93;;;15.00;97.20;;;;;;1722683;28;20196;-71
2022/05/26 05:19:31;;;;;;;1.50;1.07;;;15.00;97.20;;;;;;1721290;28;20969;-71
2022/05/26 05:20:23;;;;;;;1.20;1.10;;;15.00;97.20;;;;;;1722634;28;20251;-72
2022/05/26 05:21:20;;;;;;;2.38;0.90;;;15.00;97.20;;;;;;1721110;28;20197;-71
2022/05/26 05:22:17;;;;;;;2.30;0.98;;;15.10;97.20;;;;;;1720939;28;20189;-71
2022/05/26 05:23:12;;;;;;;1.55;1.13;;;15.10;97.20;;;;;;1721722;28;20551;-71
2022/05/26 05:24:07;;;;;;;1.60;0.90;;;15.10;97.20;;;;;;1721685;28;20224;-71
2022/05/26 05:25:02;;;;;;;1.88;0.90;;;15.10;97.20;;;;;;1720374;28;20839;-71
2022/05/26 05:25:56;;;;;;;1.90;1.10;;;15.10;97.20;;;;;;1721581;28;20193;-71
2022/05/26 05:26:52;;;;;;;1.20;0.82;;;15.10;97.20;;;;;;1721894;28;20587;-71
2022/05/26 05:27:47;;;;;;;1.20;0.85;;;15.20;97.20;;;;;;1721412;28;20225;-71
2022/05/26 05:28:42;;;;;;;1.27;1.10;;;15.20;97.20;;;;;;1722781;28;20295;-71
2022/05/26 05:29:38;;;;;;;3.17;0.98;;;15.20;97.20;;;;;;1721439;28;20766;-71
2022/05/26 05:30:32;;;;;;;1.42;0.90;;;15.20;97.20;;;;;;1721746;28;20197;-71
2022/05/26 05:31:29;;;;;;;2.75;0.90;;;15.20;97.20;;;;;;1722064;28;20263;-71
2022/05/26 05:32:25;;;;;;;2.55;0.93;;;15.30;97.20;;;;;;1721589;28;20231;-71
2022/05/26 05:33:21;;;;;;;1.10;0.90;;;15.30;97.20;;;;;;1721199;28;20232;-71
2022/05/26 05:34:16;;;;;;;2.45;0.98;;;15.30;97.20;;;;;;1721281;28;20204;-71
2022/05/26 05:35:11;;;;;;;2.17;1.20;;;15.30;97.20;;;;;;1721545;28;20243;-71
2022/05/26 05:36:07;;;;;;;1.27;0.85;;;15.30;97.20;;;;;;1721698;28;20200;-71
2022/05/26 05:36:58;;;;;;;4.30;1.05;;;15.30;97.20;;;;;;1720469;28;20236;-71
2022/05/26 05:37:50;;;;;;;3.10;1.17;;;15.40;97.20;;;;;;1721927;28;20208;-71
2022/05/26 05:38:41;;;;;;;2.50;1.38;;;15.40;97.20;;;;;;1722286;28;20572;-71
2022/05/26 05:39:33;;;;;;;3.60;0.93;;;15.40;97.20;;;;;;1721696;28;20235;-72
2022/05/26 05:40:24;;;;;;;3.08;1.08;;;15.40;97.20;;;;;;1723053;28;20480;-71
2022/05/26 05:41:17;;;;;;;17.95;1.85;;;15.40;97.20;;;;;;1721671;28;20197;-71
2022/05/26 05:42:08;;;;;;;1.00;0.80;;;15.40;97.20;;;;;;1721449;28;20263;-71
2022/05/26 05:43:00;;;;;;;1.70;0.80;;;15.40;97.20;;;;;;1722258;28;20196;-71
2022/05/26 05:43:51;;;;;;;1.77;1.00;;;15.40;97.20;;;;;;1722838;28;20197;-71
2022/05/26 05:44:43;;;;;;;1.27;0.90;;;15.40;97.20;;;;;;1721536;28;20208;-71
2022/05/26 05:45:34;;;;;;;1.15;0.90;;;15.50;97.20;;;;;;1721252;28;20457;-71
2022/05/26 05:46:33;;;;;;;1.77;1.20;;;15.50;97.20;;;;;;1721600;28;20197;-71
2022/05/26 05:47:24;;;;;;;1.35;0.95;;;15.50;97.20;;;;;;1722407;28;20451;-72
2022/05/26 05:48:16;;;;;;;1.97;0.80;;;15.50;97.20;;;;;;1722130;28;20228;-71
2022/05/26 05:49:07;;;;;;;0.93;0.80;;;15.50;97.20;;;;;;1721455;28;20579;-71
2022/05/26 05:49:59;;;;;;;1.20;1.10;;;15.60;97.20;;;;;;1722507;28;20245;-71
2022/05/26 05:50:50;;;;;;;1.90;1.10;;;15.60;97.20;;;;;;1722511;28;20504;-71
2022/05/26 05:51:42;;;;;;;1.38;0.95;;;15.60;97.20;;;;;;1721131;28;20256;-71
2022/05/26 05:52:33;;;;;;;1.13;0.80;;;15.70;97.20;;;;;;1722075;28;20313;-71
2022/05/26 05:53:26;;;;;;;3.23;1.37;;;15.70;97.20;;;;;;1722175;28;20196;-71
2022/05/26 05:54:17;;;;;;;1.20;0.80;;;15.70;97.20;;;;;;1722813;28;20223;-71
2022/05/26 05:55:09;;;;;;;1.10;0.80;;;15.80;97.20;;;;;;1720819;28;20201;-72
2022/05/26 05:56:00;;;;;;;2.10;1.50;;;15.80;97.20;;;;;;1724098;28;20193;-71
2022/05/26 05:56:52;;;;;;;2.37;1.03;;;15.80;97.20;;;;;;1721984;28;20205;-71
2022/05/26 05:57:43;;;;;;;1.80;0.90;;;15.80;97.20;;;;;;1722579;28;20629;-71
2022/05/26 05:58:34;;;;;;;1.43;0.97;;;15.90;97.20;;;;;;1722483;28;20220;-71
2022/05/26 05:59:25;;;;;;;3.13;0.90;;;15.90;97.20;;;;;;1720862;28;20200;-71
2022/05/26 06:00:17;;;;;;;1.73;0.70;;;15.90;97.20;;;;;;1722158;28;20192;-71
2022/05/26 06:01:08;;;;;;;2.03;0.90;;;15.90;97.20;;;;;;1722058;28;20196;-71
2022/05/26 06:02:01;;;;;;;1.27;1.00;;;16.00;97.20;;;;;;1721750;28;20193;-71
2022/05/26 06:02:52;;;;;;;1.38;1.00;;;16.00;97.20;;;;;;1721811;28;20204;-71
2022/05/26 06:03:43;;;;;;;1.10;0.90;;;16.00;97.20;;;;;;1722499;28;20196;-71
2022/05/26 06:04:41;;;;;;;2.13;1.13;;;16.10;97.20;;;;;;1721993;28;20209;-71
2022/05/26 06:05:34;;;;;;;1.27;1.02;;;16.10;97.20;;;;;;1721772;28;20193;-71
2022/05/26 06:06:25;;;;;;;1.75;1.00;;;16.20;97.20;;;;;;1720596;28;20680;-71
2022/05/26 06:07:17;;;;;;;2.77;0.80;;;16.20;97.20;;;;;;1722688;28;20868;-71
2022/05/26 06:08:08;;;;;;;1.35;0.90;;;16.30;97.20;;;;;;1722138;28;20652;-72
2022/05/26 06:09:00;;;;;;;1.77;0.90;;;16.30;97.20;;;;;;1721695;28;20224;-71
2022/05/26 06:09:52;;;;;;;0.80;0.60;;;16.30;97.20;;;;;;1722450;28;20519;-71
2022/05/26 06:10:43;;;;;;;2.58;0.90;;;16.40;97.20;;;;;;1722257;28;20193;-72
2022/05/26 06:11:35;;;;;;;1.00;0.90;;;16.40;97.20;;;;;;1721856;28;20662;-71
2022/05/26 06:12:25;;;;;;;1.05;0.80;;;16.50;97.20;;;;;;1722345;28;20619;-71
2022/05/26 06:13:17;;;;;;;1.60;1.10;;;16.60;97.20;;;;;;1721479;28;20223;-71
2022/05/26 06:14:08;;;;;;;1.90;0.90;;;16.60;97.20;;;;;;1722406;28;20197;-71
2022/05/26 06:15:00;;;;;;;2.47;1.10;;;16.70;97.20;;;;;;1722421;28;20223;-71
2022/05/26 06:15:51;;;;;;;1.67;0.85;;;16.70;97.20;;;;;;1721156;28;20228;-71
2022/05/26 06:16:44;;;;;;;1.75;0.90;;;16.80;97.20;;;;;;1721402;28;20703;-71
2022/05/26 06:17:36;;;;;;;0.85;0.60;;;16.80;97.20;;;;;;1721669;28;20219;-72
2022/05/26 06:18:28;;;;;;;1.00;0.70;;;16.80;97.20;;;;;;1722396;28;20212;-72
2022/05/26 06:19:19;;;;;;;1.40;0.80;;;16.80;97.20;;;;;;1720492;28;20236;-71
2022/05/26 06:20:13;;;;;;;1.00;0.70;;;16.80;97.20;;;;;;1722027;28;20572;-71
2022/05/26 06:21:07;;;;;;;1.90;0.90;;;16.80;97.20;;;;;;1722684;28;20199;-71
2022/05/26 06:21:58;;;;;;;1.65;0.90;;;16.80;97.20;;;;;;1720986;28;20205;-71
2022/05/26 06:22:50;;;;;;;1.00;0.70;;;16.80;97.20;;;;;;1720879;28;20284;-71
2022/05/26 06:23:40;;;;;;;1.85;1.00;;;16.80;97.20;;;;;;1722079;28;20229;-72
2022/05/26 06:24:32;;;;;;;2.50;0.90;;;16.70;97.20;;;;;;1721632;28;20219;-71
2022/05/26 06:25:23;;;;;;;2.30;0.80;;;16.70;97.20;;;;;;1721283;28;20257;-71
2022/05/26 06:26:15;;;;;;;8.57;1.00;;;16.70;97.20;;;;;;1721845;28;20193;-71
2022/05/26 06:30:33;;;;;;;3.20;0.90;;;16.60;97.20;;;;;;1721205;28;20572;-71
2022/05/26 06:31:24;;;;;;;1.15;0.70;;;16.60;97.20;;;;;;1720456;28;20721;-71
2022/05/26 06:37:16;;;;;;;5.57;0.90;;;16.50;97.20;;;;;;1721535;28;20276;-71
2022/05/26 06:38:07;;;;;;;1.00;0.70;;;16.50;97.20;;;;;;1721844;28;20204;-72
2022/05/26 06:38:58;;;;;;;2.03;0.70;;;16.60;97.20;;;;;;1722298;28;20193;-71
2022/05/26 06:39:49;;;;;;;2.05;0.88;;;16.60;97.20;;;;;;1722009;28;20732;-71
2022/05/26 06:40:41;;;;;;;2.87;0.80;;;16.70;97.20;;;;;;1722905;28;20648;-72
2022/05/26 06:42:44;;;;;;;1.73;0.65;;;16.80;97.20;;;;;;1722450;28;20656;-71
2022/05/26 06:43:35;;;;;;;2.80;0.80;;;16.80;97.20;;;;;;1721419;28;20634;-71
2022/05/26 06:44:27;;;;;;;1.93;0.80;;;16.90;97.20;;;;;;1720980;28;20576;-71
2022/05/26 06:45:19;;;;;;;1.90;0.80;;;16.90;97.20;;;;;;1721389;28;20197;-71
2022/05/26 06:46:11;;;;;;;1.30;1.00;;;17.00;97.20;;;;;;1721029;28;20196;-71
2022/05/26 06:47:02;;;;;;;2.08;0.90;;;17.00;97.20;;;;;;1721636;28;20205;-71
2022/05/26 06:47:54;;;;;;;1.70;0.70;;;17.00;97.20;;;;;;1722913;28;20637;-71
2022/05/26 06:48:46;;;;;;;3.58;0.70;;;17.10;97.20;;;;;;1722544;28;20713;-71
2022/05/26 06:49:40;;;;;;;1.60;0.77;;;17.10;97.20;;;;;;1721418;28;20228;-71
2022/05/26 06:50:30;;;;;;;1.17;0.80;;;17.20;97.20;;;;;;1722405;28;20545;-71
2022/05/26 06:51:24;;;;;;;1.40;0.80;;;17.30;97.20;;;;;;1721538;28;20222;-72
2022/05/26 06:52:16;;;;;;;1.30;0.70;;;17.30;97.20;;;;;;1722257;28;20217;-72
2022/05/26 06:53:09;;;;;;;2.65;0.77;;;17.40;97.20;;;;;;1722416;28;20284;-71
2022/05/26 06:54:00;;;;;;;1.80;0.90;;;17.50;97.20;;;;;;1721966;28;20205;-71
2022/05/26 06:54:52;;;;;;;1.23;0.97;;;17.60;97.20;;;;;;1722627;28;20666;-70
2022/05/26 06:55:43;;;;;;;2.10;0.90;;;17.70;97.20;;;;;;1721319;28;20197;-70
2022/05/26 06:56:34;;;;;;;1.33;1.10;;;17.90;97.20;;;;;;1720828;28;20288;-70
2022/05/26 06:57:25;;;;;;;1.25;0.90;;;18.00;97.20;;;;;;1721270;28;20696;-70
2022/05/26 06:58:17;;;;;;;1.20;0.73;;;18.10;97.20;;;;;;1723048;28;20587;-70
2022/05/26 06:59:08;;;;;;;2.25;1.30;;;18.30;97.20;;;;;;1722864;28;20482;-72
2022/05/26 07:00:00;;;;;;;3.07;1.23;;;18.40;97.20;;;;;;1723704;28;20231;-70
2022/05/26 07:00:51;;;;;;;2.75;0.77;;;18.50;97.20;;;;;;1723562;28;20209;-70
2022/05/26 07:01:43;;;;;;;2.47;0.90;;;18.60;97.20;;;;;;1724150;28;20280;-70
2022/05/26 07:02:34;;;;;;;1.75;0.98;;;18.60;97.20;;;;;;1724396;28;20287;-70
2022/05/26 07:03:27;;;;;;;1.20;0.82;;;18.70;97.20;;;;;;1724141;28;20205;-70
2022/05/26 07:04:19;;;;;;;3.22;0.90;;;18.80;97.20;;;;;;1723431;28;20197;-70
2022/05/26 07:05:11;;;;;;;1.13;0.80;;;18.80;97.20;;;;;;1723194;28;20208;-70
2022/05/26 07:06:02;;;;;;;2.05;0.90;;;18.90;97.20;;;;;;1723215;28;20553;-70
2022/05/26 07:06:55;;;;;;;1.70;0.82;;;18.90;97.20;;;;;;1722081;28;20193;-70
2022/05/26 07:07:45;;;;;;;1.42;0.85;;;19.00;97.20;;;;;;1723171;28;20262;-71
2022/05/26 07:08:37;;;;;;;2.03;0.80;;;19.00;97.20;;;;;;1723409;28;20207;-71
2022/05/26 07:09:30;;;;;;;1.08;0.70;;;19.10;97.20;;;;;;1723712;28;20197;-69
2022/05/26 07:10:22;;;;;;;1.80;0.90;;;19.10;97.20;;;;;;1722332;28;20679;-70
2022/05/26 07:11:14;;;;;;;1.00;0.70;;;19.10;97.20;;;;;;1723461;28;20199;-70
2022/05/26 07:12:07;;;;;;;2.22;0.90;;;19.20;97.20;;;;;;1723229;28;20666;-70
2022/05/26 07:12:57;;;;;;;1.38;0.80;;;19.20;97.20;;;;;;1722740;28;20203;-70
2022/05/26 07:13:49;;;;;;;1.50;0.90;;;19.30;97.20;;;;;;1722674;28;20204;-70
2022/05/26 07:14:40;;;;;;;1.63;1.20;;;19.30;97.20;;;;;;1721809;28;20220;-70
2022/05/26 07:15:33;;;;;;;1.90;0.87;;;19.40;97.20;;;;;;1723386;28;20219;-70
2022/05/26 07:16:23;;;;;;;1.15;0.70;;;19.50;97.20;;;;;;1721840;28;20457;-70
2022/05/26 07:17:15;;;;;;;2.30;0.93;;;19.60;97.20;;;;;;1723278;28;20194;-70
2022/05/26 07:18:07;;;;;;;1.10;0.90;;;19.70;97.20;;;;;;1722361;28;20618;-70
2022/05/26 07:18:59;;;;;;;1.20;0.90;;;19.80;97.20;;;;;;1722895;28;20232;-69
2022/05/26 07:19:52;;;;;;;5.15;1.10;;;19.90;97.20;;;;;;1723126;28;20258;-70
2022/05/26 07:20:43;;;;;;;1.52;0.90;;;20.00;97.20;;;;;;1722853;28;20211;-70
2022/05/26 07:21:34;;;;;;;0.90;0.70;;;20.00;97.20;;;;;;1721902;28;20731;-70
2022/05/26 07:22:26;;;;;;;1.67;0.87;;;20.10;97.20;;;;;;1722711;28;20699;-70
2022/05/26 07:23:17;;;;;;;1.90;0.70;;;20.20;97.20;;;;;;1719245;28;20448;-70
2022/05/26 07:24:09;;;;;;;0.90;0.70;;;20.30;97.20;;;;;;1719595;28;20276;-70
2022/05/26 07:25:00;;;;;;;1.73;1.00;;;20.30;97.20;;;;;;1719523;28;20234;-70
2022/05/26 07:25:51;;;;;;;2.90;0.73;;;20.40;97.20;;;;;;1719214;28;20197;-69
2022/05/26 07:26:42;;;;;;;2.78;0.88;;;20.40;97.20;;;;;;1719262;28;20483;-70
2022/05/26 07:27:34;;;;;;;4.03;0.97;;;20.50;97.20;;;;;;1719343;28;20198;-70
2022/05/26 07:28:25;;;;;;;1.88;0.90;;;20.60;97.20;;;;;;1721906;28;20463;-70
2022/05/26 07:29:18;;;;;;;1.93;0.80;;;20.70;97.20;;;;;;1722318;28;20207;-70
2022/05/26 07:30:10;;;;;;;0.98;0.65;;;20.70;97.20;;;;;;1721762;28;20202;-70
2022/05/26 07:31:02;;;;;;;2.50;0.60;;;20.80;97.20;;;;;;1722719;28;20661;-70
2022/05/26 07:31:54;;;;;;;1.77;1.02;;;20.80;97.20;;;;;;1723228;28;20192;-70
2022/05/26 07:32:44;;;;;;;1.98;0.90;;;20.90;97.20;;;;;;1723186;28;20616;-71
2022/05/26 07:33:36;;;;;;;1.90;0.90;;;21.00;97.20;;;;;;1723006;28;20571;-71
2022/05/26 07:34:28;;;;;;;2.40;1.05;;;21.00;97.20;;;;;;1722835;28;20196;-70
2022/05/26 07:35:20;;;;;;;1.95;1.00;;;21.10;97.20;;;;;;1723627;28;20234;-70
2022/05/26 07:42:01;;;;;;;2.50;1.00;;;21.10;97.20;;;;;;1717085;28;20312;-71
2022/05/26 07:42:55;;;;;;;3.10;0.90;;;21.10;97.20;;;;;;1714742;28;20566;-70
2022/05/26 07:43:52;;;;;;;1.85;1.10;;;21.00;97.20;;;;;;1714702;28;20212;-70
2022/05/26 07:44:45;;;;;;;1.30;0.75;;;21.00;97.20;;;;;;1714534;28;20236;-70
2022/05/26 07:45:38;;;;;;;1.45;0.88;;;20.90;97.20;;;;;;1714569;28;20216;-70
2022/05/26 07:46:29;;;;;;;1.65;0.70;;;20.90;97.20;;;;;;1714612;28;20679;-71
2022/05/26 07:47:22;;;;;;;1.90;0.70;;;20.80;97.20;;;;;;1714461;28;20695;-70
2022/05/26 07:48:13;;;;;;;1.40;0.95;;;20.80;97.20;;;;;;1714529;28;20205;-70
2022/05/26 07:49:06;;;;;;;1.07;0.70;;;20.80;97.20;;;;;;1714728;28;20198;-70
2022/05/26 07:49:56;;;;;;;1.88;0.60;;;20.90;97.20;;;;;;1714624;28;20221;-72
2022/05/26 07:50:49;;;;;;;1.23;0.80;;;20.90;97.20;;;;;;1714683;28;20206;-71
2022/05/26 07:51:40;;;;;;;4.18;0.95;;;21.00;97.20;;;;;;1714412;28;20205;-71
2022/05/26 07:52:32;;;;;;;2.20;0.97;;;21.00;97.20;;;;;;1714492;28;20204;-73
2022/05/26 07:53:23;;;;;;;1.27;0.82;;;21.10;97.20;;;;;;1714698;28;20216;-70
2022/05/26 07:54:14;;;;;;;3.00;1.10;;;21.10;97.20;;;;;;1718566;28;20212;-70
2022/05/26 07:55:06;;;;;;;2.03;1.00;;;21.20;97.20;;;;;;1721388;28;20213;-70
2022/05/26 07:56:00;;;;;;;1.10;0.80;;;21.20;97.20;;;;;;1721208;28;20251;-70
2022/05/26 07:56:50;;;;;;;1.33;0.93;;;21.30;97.20;;;;;;1720956;28;20205;-70
2022/05/26 07:57:42;;;;;;;1.57;0.60;;;21.30;97.20;;;;;;1721278;28;20193;-70
2022/05/26 07:58:35;;;;;;;1.50;0.90;;;21.40;97.20;;;;;;1721280;28;20669;-70
2022/05/26 07:59:26;;;;;;;2.35;0.70;;;21.50;97.20;;;;;;1721290;28;20288;-70
2022/05/26 08:00:18;;;;;;;1.35;0.85;;;21.50;97.20;;;;;;1721316;28;20225;-70
2022/05/26 08:01:09;;;;;;;0.90;0.70;;;21.60;97.20;;;;;;1721332;28;20592;-73
2022/05/26 08:02:01;;;;;;;1.90;0.87;;;21.60;97.20;;;;;;1721389;28;20219;-70
2022/05/26 08:02:51;;;;;;;2.25;0.80;;;21.60;97.20;;;;;;1721246;28;20471;-72
2022/05/26 08:03:43;;;;;;;2.07;0.90;;;21.60;97.20;;;;;;1721272;28;20212;-70
2022/05/26 08:04:34;;;;;;;2.67;0.70;;;21.60;97.20;;;;;;1721180;28;20213;-70
2022/05/26 08:05:26;;;;;;;1.10;0.90;;;21.60;97.20;;;;;;1721271;28;20200;-70
2022/05/26 08:06:18;;;;;;;1.92;0.90;;;21.60;97.20;;;;;;1721217;28;20742;-70
2022/05/26 08:07:10;;;;;;;6.18;1.10;;;21.70;97.20;;;;;;1720960;28;20693;-70
2022/05/26 08:08:01;;;;;;;1.10;0.80;;;21.70;97.20;;;;;;1721197;28;20197;-70
2022/05/26 08:08:53;;;;;;;1.27;0.90;;;21.80;97.20;;;;;;1721015;28;20205;-70
2022/05/26 08:09:44;;;;;;;1.17;0.70;;;21.90;97.20;;;;;;1721189;28;20920;-70
2022/05/26 08:10:36;;;;;;;1.42;0.70;;;22.00;97.20;;;;;;1721212;28;20581;-70
2022/05/26 08:11:26;;;;;;;2.00;0.90;;;22.00;97.20;;;;;;1721181;28;20209;-70
2022/05/26 08:12:18;;;;;;;1.90;1.00;;;22.10;97.20;;;;;;1721202;28;20240;-71
2022/05/26 08:13:09;;;;;;;3.25;0.80;;;22.10;97.20;;;;;;1721128;28;20220;-71
2022/05/26 08:14:00;;;;;;;3.67;1.20;;;22.20;97.20;;;;;;1720921;28;20201;-70
2022/05/26 08:14:51;;;;;;;0.90;0.70;;;22.20;97.20;;;;;;1721160;28;20225;-70
2022/05/26 08:15:43;;;;;;;3.43;1.67;;;22.20;97.20;;;;;;1721198;28;20216;-71
2022/05/26 08:16:34;;;;;;;1.30;1.00;;;22.20;97.20;;;;;;1720977;28;20962;-70
2022/05/26 08:17:26;;;;;;;4.23;0.90;;;22.20;97.20;;;;;;1721231;28;20580;-70
2022/05/26 08:18:17;;;;;;;2.35;0.70;;;22.20;97.20;;;;;;1721068;28;20221;-71
2022/05/26 08:19:09;;;;;;;5.55;1.00;;;22.20;97.20;;;;;;1721105;28;20545;-71
2022/05/26 08:20:00;;;;;;;1.27;1.00;;;22.30;97.20;;;;;;1717794;28;20222;-71
2022/05/26 08:20:52;;;;;;;1.60;0.93;;;22.30;97.20;;;;;;1714406;28;20680;-71
2022/05/26 08:21:44;;;;;;;3.05;1.00;;;22.30;97.20;;;;;;1714468;28;20202;-71
2022/05/26 08:22:35;;;;;;;1.60;1.10;;;22.30;97.20;;;;;;1714511;28;20213;-71
2022/05/26 08:23:26;;;;;;;1.02;0.77;;;22.30;97.20;;;;;;1714453;28;20692;-70
2022/05/26 08:24:19;;;;;;;1.67;0.90;;;22.30;97.20;;;;;;1714465;28;20573;-71
2022/05/26 08:25:10;;;;;;;2.03;0.90;;;22.30;97.20;;;;;;1714428;28;20205;-71
2022/05/26 08:26:02;;;;;;;3.80;0.93;;;22.30;97.20;;;;;;1714492;28;20202;-72
2022/05/26 08:26:52;;;;;;;1.98;0.90;;;22.30;97.20;;;;;;1714120;28;20202;-71
2022/05/26 08:27:44;;;;;;;2.33;1.10;;;22.30;97.20;;;;;;1714414;28;20193;-71
2022/05/26 08:28:35;;;;;;;1.60;0.70;;;22.20;97.20;;;;;;1714359;28;20261;-71
2022/05/26 08:29:27;;;;;;;1.67;0.70;;;22.20;97.20;;;;;;1714313;28;20289;-70
2022/05/26 08:30:18;;;;;;;1.85;0.80;;;22.20;97.20;;;;;;1714653;28;20685;-71
2022/05/26 08:31:10;;;;;;;2.50;1.10;;;22.20;97.20;;;;;;1721095;28;20204;-71
2022/05/26 08:32:00;;;;;;;1.40;0.70;;;22.30;97.20;;;;;;1721058;28;20444;-70
2022/05/26 08:32:54;;;;;;;1.77;1.00;;;22.30;97.20;;;;;;1720940;28;20232;-71
2022/05/26 08:33:45;;;;;;;1.48;1.02;;;22.30;97.20;;;;;;1721075;28;20202;-70
2022/05/26 08:34:37;;;;;;;1.67;1.00;;;22.30;97.20;;;;;;1721032;28;20202;-70
2022/05/26 08:35:28;;;;;;;2.65;0.90;;;22.30;97.20;;;;;;1721059;28;20869;-70
2022/05/26 08:36:23;;;;;;;1.37;0.80;;;22.30;97.20;;;;;;1721008;28;20572;-70
2022/05/26 08:37:16;;;;;;;1.70;0.75;;;22.20;97.20;;;;;;1720779;28;20209;-70
2022/05/26 08:38:09;;;;;;;1.38;1.10;;;22.20;97.20;;;;;;1721025;28;20292;-70
2022/05/26 08:38:59;;;;;;;1.73;0.80;;;22.10;97.20;;;;;;1721111;28;20268;-71
2022/05/26 08:39:51;;;;;;;1.20;0.80;;;22.00;97.20;;;;;;1720842;28;20237;-71
2022/05/26 08:40:49;;;;;;;2.33;0.90;;;22.00;97.20;;;;;;1721063;28;20201;-71
2022/05/26 08:41:43;;;;;;;2.17;1.08;;;22.00;97.20;;;;;;1720992;28;20205;-70
2022/05/26 08:42:35;;;;;;;2.63;0.85;;;22.00;97.20;;;;;;1721033;28;20301;-71
2022/05/26 08:43:33;;;;;;;2.38;0.80;;;22.00;97.20;;;;;;1721023;28;20640;-71
2022/05/26 08:44:28;;;;;;;1.30;0.70;;;22.00;97.20;;;;;;1721103;28;20237;-71
2022/05/26 08:45:21;;;;;;;1.98;1.10;;;22.00;97.20;;;;;;1721040;28;20205;-71
2022/05/26 08:46:16;;;;;;;2.10;1.00;;;22.00;97.20;;;;;;1720896;28;20205;-71
2022/05/26 08:47:10;;;;;;;2.00;0.95;;;22.00;97.20;;;;;;1720714;28;20209;-71
2022/05/26 08:48:04;;;;;;;2.10;1.10;;;21.90;97.20;;;;;;1721024;28;20197;-71
2022/05/26 08:49:09;;;;;;;1.13;0.70;;;21.80;97.20;;;;;;1721040;28;20205;-71
2022/05/26 08:50:04;;;;;;;2.53;1.02;;;21.80;97.20;;;;;;1720916;28;20257;-71
2022/05/26 08:50:58;;;;;;;1.50;0.93;;;21.70;97.20;;;;;;1721018;28;20616;-71
2022/05/26 08:51:51;;;;;;;2.60;0.80;;;21.70;97.20;;;;;;1721000;28;20624;-71
2022/05/26 08:52:48;;;;;;;2.03;0.95;;;21.70;97.20;;;;;;1720884;28;20854;-71
2022/05/26 08:53:41;;;;;;;1.55;1.13;;;21.80;97.20;;;;;;1721036;28;20692;-71
2022/05/26 08:54:39;;;;;;;2.10;1.15;;;21.80;97.20;;;;;;1720863;28;20201;-71
2022/05/26 08:55:34;;;;;;;1.90;1.00;;;21.90;97.20;;;;;;1720929;28;20584;-71
2022/05/26 08:56:28;;;;;;;1.40;1.00;;;21.90;97.20;;;;;;1720295;28;20304;-71
2022/05/26 08:57:23;;;;;;;0.90;0.75;;;21.90;97.20;;;;;;1720802;28;20690;-71
2022/05/26 08:58:17;;;;;;;1.40;0.80;;;21.90;97.20;;;;;;1724792;28;20213;-71
2022/05/26 08:59:12;;;;;;;1.42;0.80;;;21.90;97.20;;;;;;1722964;28;20204;-71
2022/05/26 09:00:06;;;;;;;2.70;0.90;;;21.90;97.20;;;;;;1720527;28;20197;-71
2022/05/26 09:01:00;;;;;;;1.20;0.77;;;21.90;97.20;;;;;;1720604;28;20332;-71
2022/05/26 09:01:55;;;;;;;1.55;0.90;;;21.90;97.20;;;;;;1720479;28;20201;-71
2022/05/26 09:02:46;;;;;;;2.38;0.80;;;21.90;97.20;;;;;;1720498;28;20205;-71
2022/05/26 09:03:38;;;;;;;1.25;0.65;;;21.90;97.20;;;;;;1720539;28;20197;-71
2022/05/26 09:04:29;;;;;;;2.17;1.00;;;22.00;97.20;;;;;;1720563;28;20805;-71
2022/05/26 09:05:22;;;;;;;3.23;1.23;;;22.00;97.20;;;;;;1718124;28;20205;-71
2022/05/26 09:06:17;;;;;;;1.67;0.70;;;22.00;97.20;;;;;;1721263;28;20274;-71
2022/05/26 09:13:09;;;;;;;1.60;0.82;;;22.10;97.20;;;;;;1713587;28;20280;-71
2022/05/26 09:14:00;;;;;;;1.92;0.90;;;22.20;97.20;;;;;;1718019;28;20208;-71
2022/05/26 09:14:52;;;;;;;1.45;0.70;;;22.30;97.20;;;;;;1720489;28;20208;-71
2022/05/26 09:15:43;;;;;;;2.25;0.80;;;22.40;97.20;;;;;;1719959;28;20569;-71
2022/05/26 09:16:41;;;;;;;3.23;1.73;;;22.50;97.20;;;;;;1719485;28;20197;-71
2022/05/26 09:17:31;;;;;;;1.10;0.77;;;22.50;97.20;;;;;;1719820;28;20284;-71
2022/05/26 09:18:23;;;;;;;3.00;0.90;;;22.60;97.20;;;;;;1720316;28;20263;-71
2022/05/26 09:19:17;;;;;;;1.60;0.70;;;22.60;97.20;;;;;;1720303;28;20209;-71
2022/05/26 09:20:33;;;;;;;1.80;0.75;;;22.70;97.20;;;;;;1720233;28;20197;-71
2022/05/26 09:21:31;;;;;;;1.15;0.88;;;22.80;97.20;;;;;;1720241;28;20240;-71
2022/05/26 09:22:29;;;;;;;3.20;1.10;;;22.90;97.20;;;;;;1713756;28;20547;-71
2022/05/26 09:23:27;;;;;;;1.25;0.85;;;23.10;97.20;;;;;;1717388;28;20332;-71
2022/05/26 09:24:25;;;;;;;1.05;0.90;;;23.30;97.20;;;;;;1720177;28;20292;-71
2022/05/26 09:25:35;;;;;;;1.05;0.70;;;23.50;97.20;;;;;;1720369;28;20203;-71
2022/05/26 09:26:28;;;;;;;1.33;0.85;;;23.60;97.20;;;;;;1719768;28;20212;-71
2022/05/26 09:27:27;;;;;;;1.48;1.10;;;23.80;97.20;;;;;;1714559;28;20240;-71
2022/05/26 09:28:32;;;;;;;2.00;0.70;;;23.90;97.20;;;;;;1713498;28;20209;-71
2022/05/26 09:29:26;;;;;;;1.55;0.77;;;24.00;97.20;;;;;;1720785;28;20229;-71
2022/05/26 09:30:22;;;;;;;1.48;0.88;;;24.00;97.20;;;;;;1720296;28;20336;-71
2022/05/26 09:31:22;;;;;;;1.10;1.00;;;24.00;97.20;;;;;;1720292;28;20209;-71
2022/05/26 09:32:17;;;;;;;2.42;1.10;;;24.00;97.20;;;;;;1720193;28;20201;-71
2022/05/26 09:33:20;;;;;;;1.33;0.98;;;24.00;97.20;;;;;;1720206;28;20209;-71
2022/05/26 09:34:17;;;;;;;0.93;0.70;;;23.90;97.20;;;;;;1720194;28;20748;-71
2022/05/26 09:35:13;;;;;;;1.20;0.80;;;23.80;97.20;;;;;;1720219;28;20201;-72
2022/05/26 09:36:27;;;;;;;4.55;0.90;;;23.70;97.20;;;;;;1720185;28;20189;-71
2022/05/26 09:37:37;;;;;;;2.50;0.95;;;23.60;97.20;;;;;;1711225;28;20205;-73
2022/05/26 09:38:33;;;;;;;1.00;0.80;;;23.50;97.20;;;;;;1720270;28;20577;-72
2022/05/26 09:39:26;;;;;;;1.35;0.80;;;23.30;97.20;;;;;;1719067;28;20288;-72
2022/05/26 09:40:20;;;;;;;1.67;0.95;;;23.20;97.20;;;;;;1715692;28;20221;-71
2022/05/26 09:41:15;;;;;;;1.48;0.90;;;23.10;97.20;;;;;;1718244;28;20676;-71
2022/05/26 09:42:26;;;;;;;1.75;1.00;;;23.00;97.20;;;;;;1720782;28;20186;-71
2022/05/26 09:43:26;;;;;;;1.30;0.70;;;22.70;97.20;;;;;;1718315;28;20197;-72
2022/05/26 09:44:30;;;;;;;1.08;0.90;;;22.60;97.20;;;;;;1719149;28;20194;-72
2022/05/26 09:45:21;;;;;;;1.98;0.80;;;22.30;97.20;;;;;;1720241;28;20755;-72
2022/05/26 09:46:15;;;;;;;1.40;0.87;;;22.20;97.20;;;;;;1717222;28;20961;-72
2022/05/26 09:47:23;;;;;;;1.92;0.80;;;22.00;97.20;;;;;;1717926;28;20964;-72
2022/05/26 09:48:18;;;;;;;0.80;0.60;;;21.80;97.20;;;;;;1718387;28;20201;-72
2022/05/26 09:49:12;;;;;;;1.80;0.70;;;21.70;97.20;;;;;;1722756;28;20208;-72
2022/05/26 09:50:07;;;;;;;2.05;0.82;;;21.60;97.20;;;;;;1726918;28;20208;-72
2022/05/26 09:51:10;;;;;;;2.33;0.70;;;21.40;97.20;;;;;;1723143;28;20212;-72
2022/05/26 09:52:17;;;;;;;1.75;0.75;;;21.30;97.20;;;;;;1720112;28;20193;-72
2022/05/26 09:53:11;;;;;;;1.95;1.13;;;21.20;97.20;;;;;;1720224;28;20288;-72
2022/05/26 09:54:23;;;;;;;1.13;0.60;;;21.10;97.20;;;;;;1720015;28;20247;-72
2022/05/26 09:55:24;;;;;;;1.27;1.00;;;21.00;97.20;;;;;;1724523;28;20197;-72
2022/05/26 09:56:29;;;;;;;1.38;0.80;;;20.90;97.20;;;;;;1720180;28;20235;-72
2022/05/26 09:57:28;;;;;;;0.90;0.65;;;20.80;97.20;;;;;;1717059;28;20588;-72
2022/05/26 09:58:28;;;;;;;1.77;0.90;;;20.70;97.20;;;;;;1721380;28;20201;-73
2022/05/26 09:59:24;;;;;;;2.55;0.90;;;20.70;97.20;;;;;;1726879;28;20204;-73